Terminal Aerodrome Forecast
Issued by NWS

Home | Current Version | Previous Version | Text Only | Print | Product List | Glossary On
Versions: 1 2 3 4 5 6 7 8 9 10 11 12 13 14 15 16 17 18 19 20
752
FTUS42 KFFC 192320
TAFFTY
TAF
KFTY 192320Z 2000/2024 13006KT P6SM VCSH SCT025 BKN040 OVC250
     FM200200 15008KT P6SM -SHRA BKN015 OVC040
     FM200600 19008KT 5SM SHRA BKN008 OVC015
     FM201000 20006KT 4SM BR OVC007
     FM201500 21006KT P6SM SCT010 BKN025
     FM202000 22006KT P6SM SCT025 BKN040=

USA.gov is the U.S. government's official web portal to all federal, state and local government web resources and services.